sensor_id;sensor_type;location;lat;lon;timestamp;pressure;altitude;pressure_sealevel;temperature;humidity
84043;BME280;74129;52.540;13.416;2024-02-14T00:00:44;101224.92;;;5.13;66.00
84043;BME280;74129;52.540;13.416;2024-02-14T00:03:30;101229.26;;;5.13;65.83
84043;BME280;74129;52.540;13.416;2024-02-14T00:05:57;101230.52;;;5.09;65.84
84043;BME280;74129;52.540;13.416;2024-02-14T00:08:23;101232.62;;;5.06;66.12
84043;BME280;74129;52.540;13.416;2024-02-14T00:10:49;101229.90;;;5.04;65.90
84043;BME280;74129;52.540;13.416;2024-02-14T00:13:16;101231.01;;;5.01;66.06
84043;BME280;74129;52.540;13.416;2024-02-14T00:15:44;101224.56;;;5.04;66.02
84043;BME280;74129;52.540;13.416;2024-02-14T00:18:12;101224.48;;;5.07;66.31
84043;BME280;74129;52.540;13.416;2024-02-14T00:20:39;101227.66;;;5.11;66.01
84043;BME280;74129;52.540;13.416;2024-02-14T00:23:05;101230.73;;;5.14;65.94
84043;BME280;74129;52.540;13.416;2024-02-14T00:25:31;101238.05;;;5.18;65.86
84043;BME280;74129;52.540;13.416;2024-02-14T00:27:58;101235.95;;;5.17;65.62
84043;BME280;74129;52.540;13.416;2024-02-14T00:30:27;101230.33;;;5.17;65.63
84043;BME280;74129;52.540;13.416;2024-02-14T00:32:53;101231.70;;;5.21;65.62
84043;BME280;74129;52.540;13.416;2024-02-14T00:35:19;101230.58;;;5.24;65.64
84043;BME280;74129;52.540;13.416;2024-02-14T00:37:46;101233.83;;;5.27;65.66
84043;BME280;74129;52.540;13.416;2024-02-14T00:40:13;101231.45;;;5.30;65.61
84043;BME280;74129;52.540;13.416;2024-02-14T00:42:39;101227.96;;;5.29;65.74
84043;BME280;74129;52.540;13.416;2024-02-14T00:45:06;101229.44;;;5.30;65.58
84043;BME280;74129;52.540;13.416;2024-02-14T00:47:35;101230.79;;;5.35;65.59
84043;BME280;74129;52.540;13.416;2024-02-14T00:50:02;101235.60;;;5.38;65.58
84043;BME280;74129;52.540;13.416;2024-02-14T00:52:29;101231.66;;;5.39;65.43
84043;BME280;74129;52.540;13.416;2024-02-14T00:54:55;101231.85;;;5.39;65.47
84043;BME280;74129;52.540;13.416;2024-02-14T00:57:22;101236.17;;;5.41;65.45
84043;BME280;74129;52.540;13.416;2024-02-14T00:59:52;101234.44;;;5.42;65.32
84043;BME280;74129;52.540;13.416;2024-02-14T01:02:19;101234.52;;;5.44;65.41
84043;BME280;74129;52.540;13.416;2024-02-14T01:04:45;101233.18;;;5.45;65.47
84043;BME280;74129;52.540;13.416;2024-02-14T01:07:11;101236.25;;;5.43;65.54
84043;BME280;74129;52.540;13.416;2024-02-14T01:09:38;101240.20;;;5.46;65.55
84043;BME280;74129;52.540;13.416;2024-02-14T01:12:05;101240.35;;;5.43;65.60
84043;BME280;74129;52.540;13.416;2024-02-14T01:14:31;101238.73;;;5.42;65.41
84043;BME280;74129;52.540;13.416;2024-02-14T01:16:58;101232.61;;;5.41;65.24
84043;BME280;74129;52.540;13.416;2024-02-14T01:19:24;101235.88;;;5.41;65.20
84043;BME280;74129;52.540;13.416;2024-02-14T01:21:55;101230.34;;;5.35;65.19
84043;BME280;74129;52.540;13.416;2024-02-14T01:24:23;101228.20;;;5.33;65.25
84043;BME280;74129;52.540;13.416;2024-02-14T01:26:53;101225.81;;;5.33;65.41
84043;BME280;74129;52.540;13.416;2024-02-14T01:29:22;101220.45;;;5.30;65.25
84043;BME280;74129;52.540;13.416;2024-02-14T01:31:49;101220.36;;;5.22;65.33
84043;BME280;74129;52.540;13.416;2024-02-14T01:34:16;101220.77;;;5.18;65.52
84043;BME280;74129;52.540;13.416;2024-02-14T01:36:43;101214.86;;;5.15;65.55
84043;BME280;74129;52.540;13.416;2024-02-14T01:39:09;101212.85;;;5.14;65.66
84043;BME280;74129;52.540;13.416;2024-02-14T01:41:38;101212.35;;;5.11;65.69
84043;BME280;74129;52.540;13.416;2024-02-14T01:44:04;101208.05;;;5.07;65.69
84043;BME280;74129;52.540;13.416;2024-02-14T01:46:31;101204.26;;;5.03;65.71
84043;BME280;74129;52.540;13.416;2024-02-14T01:48:57;101205.77;;;5.01;65.77
84043;BME280;74129;52.540;13.416;2024-02-14T01:51:24;101200.70;;;5.03;65.93
84043;BME280;74129;52.540;13.416;2024-02-14T01:53:51;101204.54;;;5.05;66.00
84043;BME280;74129;52.540;13.416;2024-02-14T01:56:19;101205.83;;;5.08;65.92
84043;BME280;74129;52.540;13.416;2024-02-14T01:58:46;101199.44;;;5.09;65.90
84043;BME280;74129;52.540;13.416;2024-02-14T02:01:14;101202.83;;;5.07;65.89
84043;BME280;74129;52.540;13.416;2024-02-14T02:03:41;101206.02;;;5.07;65.88
84043;BME280;74129;52.540;13.416;2024-02-14T02:06:08;101202.63;;;5.05;65.96
84043;BME280;74129;52.540;13.416;2024-02-14T02:08:35;101197.95;;;5.03;66.21
84043;BME280;74129;52.540;13.416;2024-02-14T02:11:02;101194.45;;;4.99;66.48
84043;BME280;74129;52.540;13.416;2024-02-14T02:13:29;101188.92;;;5.02;66.41
84043;BME280;74129;52.540;13.416;2024-02-14T02:15:55;101180.31;;;5.03;66.24
84043;BME280;74129;52.540;13.416;2024-02-14T02:18:22;101179.36;;;5.04;66.35
84043;BME280;74129;52.540;13.416;2024-02-14T02:20:48;101177.93;;;5.04;66.34
84043;BME280;74129;52.540;13.416;2024-02-14T02:23:15;101176.38;;;5.04;66.36
84043;BME280;74129;52.540;13.416;2024-02-14T02:25:44;101178.17;;;5.05;66.20
84043;BME280;74129;52.540;13.416;2024-02-14T02:28:11;101179.09;;;5.04;66.14
84043;BME280;74129;52.540;13.416;2024-02-14T02:30:37;101179.73;;;5.00;66.46
84043;BME280;74129;52.540;13.416;2024-02-14T02:33:04;101176.86;;;5.00;66.60
84043;BME280;74129;52.540;13.416;2024-02-14T02:35:31;101176.48;;;5.02;66.43
84043;BME280;74129;52.540;13.416;2024-02-14T02:37:58;101176.80;;;5.05;66.33
84043;BME280;74129;52.540;13.416;2024-02-14T02:40:25;101178.21;;;5.06;66.26
84043;BME280;74129;52.540;13.416;2024-02-14T02:42:52;101175.47;;;5.03;66.39
84043;BME280;74129;52.540;13.416;2024-02-14T02:45:19;101174.40;;;4.99;66.32
84043;BME280;74129;52.540;13.416;2024-02-14T02:47:45;101172.22;;;4.97;66.44
84043;BME280;74129;52.540;13.416;2024-02-14T02:50:12;101171.40;;;4.97;66.48
84043;BME280;74129;52.540;13.416;2024-02-14T02:52:39;101167.78;;;4.95;66.53
84043;BME280;74129;52.540;13.416;2024-02-14T02:55:07;101167.45;;;4.93;66.60
84043;BME280;74129;52.540;13.416;2024-02-14T02:57:33;101166.91;;;4.91;66.72
84043;BME280;74129;52.540;13.416;2024-02-14T03:00:00;101163.77;;;4.90;66.97
84043;BME280;74129;52.540;13.416;2024-02-14T03:02:27;101157.57;;;4.90;66.95
84043;BME280;74129;52.540;13.416;2024-02-14T03:04:53;101158.77;;;4.91;66.89
84043;BME280;74129;52.540;13.416;2024-02-14T03:07:20;101158.02;;;4.91;66.86
84043;BME280;74129;52.540;13.416;2024-02-14T03:09:46;101153.52;;;4.90;66.97
84043;BME280;74129;52.540;13.416;2024-02-14T03:12:13;101152.90;;;4.93;66.78
84043;BME280;74129;52.540;13.416;2024-02-14T03:14:42;101148.18;;;4.96;66.81
84043;BME280;74129;52.540;13.416;2024-02-14T03:17:10;101141.95;;;4.98;66.62
84043;BME280;74129;52.540;13.416;2024-02-14T03:19:37;101139.61;;;4.95;66.93
84043;BME280;74129;52.540;13.416;2024-02-14T03:22:05;101140.56;;;4.98;66.85
84043;BME280;74129;52.540;13.416;2024-02-14T03:24:31;101137.40;;;4.98;66.72
84043;BME280;74129;52.540;13.416;2024-02-14T03:27:01;101137.19;;;4.98;66.75
84043;BME280;74129;52.540;13.416;2024-02-14T03:29:30;101134.41;;;4.95;66.79
84043;BME280;74129;52.540;13.416;2024-02-14T03:31:57;101139.38;;;4.92;66.86
84043;BME280;74129;52.540;13.416;2024-02-14T03:34:25;101138.99;;;4.94;66.87
84043;BME280;74129;52.540;13.416;2024-02-14T03:36:51;101139.98;;;4.92;66.94
84043;BME280;74129;52.540;13.416;2024-02-14T03:39:17;101132.84;;;4.89;66.90
84043;BME280;74129;52.540;13.416;2024-02-14T03:41:44;101132.48;;;4.88;67.09
84043;BME280;74129;52.540;13.416;2024-02-14T03:44:10;101126.91;;;4.88;67.15
84043;BME280;74129;52.540;13.416;2024-02-14T03:46:36;101127.18;;;4.89;67.09
84043;BME280;74129;52.540;13.416;2024-02-14T03:49:05;101123.95;;;4.91;67.30
84043;BME280;74129;52.540;13.416;2024-02-14T03:51:32;101120.18;;;4.92;67.51
84043;BME280;74129;52.540;13.416;2024-02-14T03:53:58;101119.42;;;4.91;67.25
84043;BME280;74129;52.540;13.416;2024-02-14T03:56:25;101118.58;;;4.89;67.51
84043;BME280;74129;52.540;13.416;2024-02-14T03:58:52;101118.95;;;4.90;67.47
84043;BME280;74129;52.540;13.416;2024-02-14T04:01:19;101110.78;;;4.89;67.28
84043;BME280;74129;52.540;13.416;2024-02-14T04:03:46;101103.56;;;4.90;67.33
84043;BME280;74129;52.540;13.416;2024-02-14T04:06:14;101099.39;;;4.90;67.36
84043;BME280;74129;52.540;13.416;2024-02-14T04:08:40;101103.77;;;4.89;67.34
84043;BME280;74129;52.540;13.416;2024-02-14T04:11:06;101101.84;;;4.90;67.24
84043;BME280;74129;52.540;13.416;2024-02-14T04:13:33;101107.83;;;4.90;67.32
84043;BME280;74129;52.540;13.416;2024-02-14T04:15:59;101110.95;;;4.91;67.56
84043;BME280;74129;52.540;13.416;2024-02-14T04:18:25;101119.51;;;4.89;67.53
84043;BME280;74129;52.540;13.416;2024-02-14T04:20:52;101130.01;;;4.88;67.41
84043;BME280;74129;52.540;13.416;2024-02-14T04:23:18;101135.87;;;4.84;67.26
84043;BME280;74129;52.540;13.416;2024-02-14T04:25:45;101135.21;;;4.85;67.20
84043;BME280;74129;52.540;13.416;2024-02-14T04:28:11;101137.77;;;4.84;67.30
84043;BME280;74129;52.540;13.416;2024-02-14T04:30:38;101128.98;;;4.84;67.63
84043;BME280;74129;52.540;13.416;2024-02-14T04:33:04;101126.56;;;4.86;67.37
84043;BME280;74129;52.540;13.416;2024-02-14T04:35:32;101123.29;;;4.85;67.28
84043;BME280;74129;52.540;13.416;2024-02-14T04:38:00;101120.30;;;4.85;67.72
84043;BME280;74129;52.540;13.416;2024-02-14T04:40:27;101120.54;;;4.91;67.62
84043;BME280;74129;52.540;13.416;2024-02-14T04:42:53;101118.41;;;4.93;67.79
84043;BME280;74129;52.540;13.416;2024-02-14T04:45:19;101112.47;;;4.94;67.88
84043;BME280;74129;52.540;13.416;2024-02-14T04:47:46;101111.53;;;4.95;67.77
84043;BME280;74129;52.540;13.416;2024-02-14T04:50:12;101115.54;;;4.98;67.44
84043;BME280;74129;52.540;13.416;2024-02-14T04:52:40;101113.00;;;5.01;67.58
84043;BME280;74129;52.540;13.416;2024-02-14T04:55:06;101108.20;;;5.00;67.45
84043;BME280;74129;52.540;13.416;2024-02-14T04:57:33;101102.88;;;5.00;67.62
84043;BME280;74129;52.540;13.416;2024-02-14T05:00:01;101098.20;;;5.00;67.63
84043;BME280;74129;52.540;13.416;2024-02-14T05:02:30;101096.55;;;5.04;67.56
84043;BME280;74129;52.540;13.416;2024-02-14T05:04:57;101091.63;;;5.08;67.48
84043;BME280;74129;52.540;13.416;2024-02-14T05:07:24;101088.02;;;5.09;67.42
84043;BME280;74129;52.540;13.416;2024-02-14T05:09:50;101084.52;;;5.13;67.63
84043;BME280;74129;52.540;13.416;2024-02-14T05:12:18;101082.31;;;5.16;67.70
84043;BME280;74129;52.540;13.416;2024-02-14T05:14:45;101081.81;;;5.16;67.57
84043;BME280;74129;52.540;13.416;2024-02-14T05:17:12;101079.80;;;5.16;67.62
84043;BME280;74129;52.540;13.416;2024-02-14T05:19:41;101080.42;;;5.19;67.78
84043;BME280;74129;52.540;13.416;2024-02-14T05:22:08;101074.60;;;5.22;67.29
84043;BME280;74129;52.540;13.416;2024-02-14T05:24:34;101072.61;;;5.25;67.39
84043;BME280;74129;52.540;13.416;2024-02-14T05:27:04;101070.89;;;5.26;67.30
84043;BME280;74129;52.540;13.416;2024-02-14T05:29:31;101069.80;;;5.27;67.36
84043;BME280;74129;52.540;13.416;2024-02-14T05:31:57;101065.80;;;5.27;67.41
84043;BME280;74129;52.540;13.416;2024-02-14T05:34:24;101061.38;;;5.27;67.30
84043;BME280;74129;52.540;13.416;2024-02-14T05:36:50;101060.66;;;5.26;67.39
84043;BME280;74129;52.540;13.416;2024-02-14T05:39:18;101055.30;;;5.28;67.33
84043;BME280;74129;52.540;13.416;2024-02-14T05:41:45;101051.79;;;5.31;67.43
84043;BME280;74129;52.540;13.416;2024-02-14T05:44:11;101047.10;;;5.33;67.60
84043;BME280;74129;52.540;13.416;2024-02-14T05:46:38;101049.02;;;5.36;67.54
84043;BME280;74129;52.540;13.416;2024-02-14T05:49:04;101043.57;;;5.36;67.66
84043;BME280;74129;52.540;13.416;2024-02-14T05:51:30;101039.14;;;5.37;67.45
84043;BME280;74129;52.540;13.416;2024-02-14T05:53:57;101040.50;;;5.35;67.44
84043;BME280;74129;52.540;13.416;2024-02-14T05:56:24;101033.75;;;5.30;67.39
84043;BME280;74129;52.540;13.416;2024-02-14T05:58:50;101036.83;;;5.28;67.45
84043;BME280;74129;52.540;13.416;2024-02-14T06:01:16;101036.45;;;5.28;67.62
84043;BME280;74129;52.540;13.416;2024-02-14T06:03:43;101037.56;;;5.28;67.67
84043;BME280;74129;52.540;13.416;2024-02-14T06:06:09;101040.23;;;5.28;67.70
84043;BME280;74129;52.540;13.416;2024-02-14T06:08:36;101041.71;;;5.27;67.68
84043;BME280;74129;52.540;13.416;2024-02-14T06:11:02;101043.80;;;5.26;67.66
84043;BME280;74129;52.540;13.416;2024-02-14T06:13:29;101039.54;;;5.26;67.65
84043;BME280;74129;52.540;13.416;2024-02-14T06:15:55;101036.46;;;5.25;67.71
84043;BME280;74129;52.540;13.416;2024-02-14T06:18:22;101032.85;;;5.26;67.84
84043;BME280;74129;52.540;13.416;2024-02-14T06:20:48;101032.73;;;5.25;67.91
84043;BME280;74129;52.540;13.416;2024-02-14T06:23:16;101031.54;;;5.28;67.82
84043;BME280;74129;52.540;13.416;2024-02-14T06:25:42;101033.70;;;5.30;67.85
84043;BME280;74129;52.540;13.416;2024-02-14T06:28:08;101039.60;;;5.35;67.76
84043;BME280;74129;52.540;13.416;2024-02-14T06:30:36;101038.36;;;5.38;67.53
84043;BME280;74129;52.540;13.416;2024-02-14T06:33:02;101039.05;;;5.38;67.47
84043;BME280;74129;52.540;13.416;2024-02-14T06:35:29;101045.09;;;5.39;67.48
84043;BME280;74129;52.540;13.416;2024-02-14T06:37:55;101045.02;;;5.45;67.56
84043;BME280;74129;52.540;13.416;2024-02-14T06:40:22;101047.47;;;5.50;67.71
84043;BME280;74129;52.540;13.416;2024-02-14T06:42:48;101047.75;;;5.52;67.71
84043;BME280;74129;52.540;13.416;2024-02-14T06:45:17;101043.52;;;5.53;67.63
84043;BME280;74129;52.540;13.416;2024-02-14T06:47:43;101037.44;;;5.54;67.43
84043;BME280;74129;52.540;13.416;2024-02-14T06:50:10;101036.38;;;5.55;67.37
84043;BME280;74129;52.540;13.416;2024-02-14T06:52:36;101031.54;;;5.53;67.36
84043;BME280;74129;52.540;13.416;2024-02-14T06:55:03;101024.33;;;5.53;67.41
84043;BME280;74129;52.540;13.416;2024-02-14T06:57:30;101022.20;;;5.55;67.50
84043;BME280;74129;52.540;13.416;2024-02-14T06:59:56;101017.02;;;5.58;67.66
84043;BME280;74129;52.540;13.416;2024-02-14T07:02:22;101014.80;;;5.62;67.57
84043;BME280;74129;52.540;13.416;2024-02-14T07:04:49;101017.09;;;5.65;67.50
84043;BME280;74129;52.540;13.416;2024-02-14T07:07:15;101013.37;;;5.68;67.46
84043;BME280;74129;52.540;13.416;2024-02-14T07:09:41;101009.95;;;5.72;67.32
84043;BME280;74129;52.540;13.416;2024-02-14T07:12:08;101007.19;;;5.74;67.18
84043;BME280;74129;52.540;13.416;2024-02-14T07:14:34;101013.09;;;5.77;67.24
84043;BME280;74129;52.540;13.416;2024-02-14T07:17:01;101006.97;;;5.78;67.32
84043;BME280;74129;52.540;13.416;2024-02-14T07:19:28;101005.01;;;5.82;67.27
84043;BME280;74129;52.540;13.416;2024-02-14T07:21:54;101001.02;;;5.84;67.26
84043;BME280;74129;52.540;13.416;2024-02-14T07:24:20;101004.18;;;5.84;67.17
84043;BME280;74129;52.540;13.416;2024-02-14T07:26:47;101010.75;;;5.84;67.04
84043;BME280;74129;52.540;13.416;2024-02-14T07:29:13;101014.55;;;5.89;67.06
84043;BME280;74129;52.540;13.416;2024-02-14T07:31:40;101015.34;;;5.95;66.88
84043;BME280;74129;52.540;13.416;2024-02-14T07:34:07;101020.54;;;5.98;67.08
84043;BME280;74129;52.540;13.416;2024-02-14T07:36:34;101025.64;;;6.01;67.07
84043;BME280;74129;52.540;13.416;2024-02-14T07:39:00;101032.95;;;6.03;66.85
84043;BME280;74129;52.540;13.416;2024-02-14T07:41:27;101035.13;;;6.03;66.69
84043;BME280;74129;52.540;13.416;2024-02-14T07:43:53;101036.80;;;6.06;66.65
84043;BME280;74129;52.540;13.416;2024-02-14T07:46:20;101037.52;;;6.11;66.70
84043;BME280;74129;52.540;13.416;2024-02-14T07:48:47;101040.95;;;6.13;66.39
84043;BME280;74129;52.540;13.416;2024-02-14T07:51:14;101039.24;;;6.15;66.59
84043;BME280;74129;52.540;13.416;2024-02-14T07:53:41;101037.33;;;6.15;66.06
84043;BME280;74129;52.540;13.416;2024-02-14T07:56:07;101035.82;;;6.18;66.30
84043;BME280;74129;52.540;13.416;2024-02-14T07:58:34;101030.73;;;6.23;66.39
84043;BME280;74129;52.540;13.416;2024-02-14T08:01:00;101031.02;;;6.23;66.08
84043;BME280;74129;52.540;13.416;2024-02-14T08:03:27;101028.63;;;6.26;66.17
84043;BME280;74129;52.540;13.416;2024-02-14T08:05:53;101027.20;;;6.29;66.18
84043;BME280;74129;52.540;13.416;2024-02-14T08:08:19;101024.86;;;6.29;66.07
84043;BME280;74129;52.540;13.416;2024-02-14T08:10:46;101026.45;;;6.32;66.17
84043;BME280;74129;52.540;13.416;2024-02-14T08:13:13;101024.27;;;6.37;66.04
84043;BME280;74129;52.540;13.416;2024-02-14T08:15:42;101019.42;;;6.42;66.26
84043;BME280;74129;52.540;13.416;2024-02-14T08:18:08;101014.54;;;6.47;66.00
84043;BME280;74129;52.540;13.416;2024-02-14T08:20:34;101010.05;;;6.47;66.21
84043;BME280;74129;52.540;13.416;2024-02-14T08:23:01;101005.73;;;6.48;66.29
84043;BME280;74129;52.540;13.416;2024-02-14T08:25:27;101004.59;;;6.51;66.40
84043;BME280;74129;52.540;13.416;2024-02-14T08:27:53;101004.02;;;6.57;66.51
84043;BME280;74129;52.540;13.416;2024-02-14T08:30:20;101000.02;;;6.62;66.45
84043;BME280;74129;52.540;13.416;2024-02-14T08:32:46;101000.06;;;6.67;66.66
84043;BME280;74129;52.540;13.416;2024-02-14T08:35:13;100996.28;;;6.73;66.87
84043;BME280;74129;52.540;13.416;2024-02-14T08:37:40;101001.14;;;6.80;66.72
84043;BME280;74129;52.540;13.416;2024-02-14T08:40:07;101001.63;;;6.80;66.65
84043;BME280;74129;52.540;13.416;2024-02-14T08:42:34;101000.73;;;6.84;66.79
84043;BME280;74129;52.540;13.416;2024-02-14T08:45:01;101002.83;;;6.89;66.63
84043;BME280;74129;52.540;13.416;2024-02-14T08:47:27;101005.52;;;6.95;66.70
84043;BME280;74129;52.540;13.416;2024-02-14T08:49:54;101003.33;;;6.97;66.68
84043;BME280;74129;52.540;13.416;2024-02-14T08:52:20;101004.98;;;7.01;66.91
84043;BME280;74129;52.540;13.416;2024-02-14T08:54:47;101003.88;;;7.04;66.91
84043;BME280;74129;52.540;13.416;2024-02-14T08:57:14;101009.04;;;7.07;66.78
84043;BME280;74129;52.540;13.416;2024-02-14T08:59:40;101003.27;;;7.08;66.75
84043;BME280;74129;52.540;13.416;2024-02-14T09:02:09;101003.08;;;7.10;66.89
84043;BME280;74129;52.540;13.416;2024-02-14T09:04:36;101000.60;;;7.11;67.04
84043;BME280;74129;52.540;13.416;2024-02-14T09:07:02;101003.29;;;7.13;67.10
84043;BME280;74129;52.540;13.416;2024-02-14T09:09:29;100998.64;;;7.17;67.14
84043;BME280;74129;52.540;13.416;2024-02-14T09:11:57;101000.06;;;7.22;67.29
84043;BME280;74129;52.540;13.416;2024-02-14T09:14:23;101002.27;;;7.24;67.47
84043;BME280;74129;52.540;13.416;2024-02-14T09:16:50;101005.06;;;7.24;67.28
84043;BME280;74129;52.540;13.416;2024-02-14T09:19:16;101005.66;;;7.25;67.33
84043;BME280;74129;52.540;13.416;2024-02-14T09:21:42;101006.98;;;7.22;67.34
84043;BME280;74129;52.540;13.416;2024-02-14T09:24:09;101005.18;;;7.17;67.50
84043;BME280;74129;52.540;13.416;2024-02-14T09:26:36;101005.32;;;7.19;67.73
84043;BME280;74129;52.540;13.416;2024-02-14T09:29:04;101001.52;;;7.22;67.60
84043;BME280;74129;52.540;13.416;2024-02-14T09:31:31;101000.48;;;7.21;67.75
84043;BME280;74129;52.540;13.416;2024-02-14T09:33:57;101004.80;;;7.19;67.71
84043;BME280;74129;52.540;13.416;2024-02-14T09:36:24;101004.97;;;7.18;67.87
84043;BME280;74129;52.540;13.416;2024-02-14T09:38:51;101003.32;;;7.18;68.17
84043;BME280;74129;52.540;13.416;2024-02-14T09:41:29;101004.37;;;7.17;68.37
84043;BME280;74129;52.540;13.416;2024-02-14T09:43:59;101003.67;;;7.17;68.68
84043;BME280;74129;52.540;13.416;2024-02-14T09:46:26;101001.46;;;7.18;68.77
84043;BME280;74129;52.540;13.416;2024-02-14T09:48:53;101000.81;;;7.18;68.91
84043;BME280;74129;52.540;13.416;2024-02-14T09:51:21;101009.61;;;7.19;68.69
84043;BME280;74129;52.540;13.416;2024-02-14T09:53:48;101006.87;;;7.17;69.23
84043;BME280;74129;52.540;13.416;2024-02-14T09:56:16;101011.89;;;7.13;69.38
84043;BME280;74129;52.540;13.416;2024-02-14T09:58:45;101007.23;;;7.11;69.56
84043;BME280;74129;52.540;13.416;2024-02-14T10:01:16;101013.63;;;7.08;69.96
84043;BME280;74129;52.540;13.416;2024-02-14T10:03:42;101011.38;;;7.06;70.08
84043;BME280;74129;52.540;13.416;2024-02-14T10:06:08;101004.52;;;7.06;70.30
84043;BME280;74129;52.540;13.416;2024-02-14T10:08:35;101002.48;;;7.11;70.64
84043;BME280;74129;52.540;13.416;2024-02-14T10:11:01;101003.81;;;7.15;70.71
84043;BME280;74129;52.540;13.416;2024-02-14T10:13:30;101000.20;;;7.17;70.82
84043;BME280;74129;52.540;13.416;2024-02-14T10:15:57;100995.67;;;7.20;70.97
84043;BME280;74129;52.540;13.416;2024-02-14T10:18:24;100996.73;;;7.26;70.89
84043;BME280;74129;52.540;13.416;2024-02-14T10:20:57;100998.04;;;7.31;71.07
84043;BME280;74129;52.540;13.416;2024-02-14T10:23:23;100995.23;;;7.32;71.05
84043;BME280;74129;52.540;13.416;2024-02-14T10:25:52;100995.09;;;7.37;71.34
84043;BME280;74129;52.540;13.416;2024-02-14T10:28:20;101000.45;;;7.40;71.58
84043;BME280;74129;52.540;13.416;2024-02-14T10:30:48;100999.42;;;7.40;71.71
84043;BME280;74129;52.540;13.416;2024-02-14T10:33:18;100989.83;;;7.49;73.29
84043;BME280;74129;52.540;13.416;2024-02-14T10:35:47;100992.98;;;7.64;73.28
84043;BME280;74129;52.540;13.416;2024-02-14T10:38:15;100984.60;;;7.75;72.88
84043;BME280;74129;52.540;13.416;2024-02-14T10:40:46;100986.34;;;7.84;72.09
84043;BME280;74129;52.540;13.416;2024-02-14T10:43:13;100981.84;;;7.88;71.93
84043;BME280;74129;52.540;13.416;2024-02-14T10:45:40;100981.81;;;7.90;71.85
84043;BME280;74129;52.540;13.416;2024-02-14T10:48:11;100984.19;;;7.88;71.73
84043;BME280;74129;52.540;13.416;2024-02-14T10:50:41;100984.80;;;7.87;71.57
84043;BME280;74129;52.540;13.416;2024-02-14T10:53:09;100980.89;;;7.85;71.61
84043;BME280;74129;52.540;13.416;2024-02-14T10:55:40;100982.27;;;7.83;71.64
84043;BME280;74129;52.540;13.416;2024-02-14T10:58:09;100981.90;;;7.83;71.66
84043;BME280;74129;52.540;13.416;2024-02-14T11:00:37;100977.83;;;7.86;71.84
84043;BME280;74129;52.540;13.416;2024-02-14T11:03:04;100976.68;;;7.96;72.00
84043;BME280;74129;52.540;13.416;2024-02-14T11:05:43;100979.30;;;8.03;72.05
84043;BME280;74129;52.540;13.416;2024-02-14T11:08:18;100974.83;;;8.05;71.96
84043;BME280;74129;52.540;13.416;2024-02-14T11:10:54;100969.35;;;8.07;72.00
84043;BME280;74129;52.540;13.416;2024-02-14T11:13:29;100969.23;;;8.07;71.93
84043;BME280;74129;52.540;13.416;2024-02-14T11:16:02;100960.61;;;8.13;71.97
84043;BME280;74129;52.540;13.416;2024-02-14T11:18:31;100966.78;;;8.20;72.14
84043;BME280;74129;52.540;13.416;2024-02-14T11:21:03;100965.47;;;8.19;71.94
84043;BME280;74129;52.540;13.416;2024-02-14T11:23:31;100966.28;;;8.15;72.34
84043;BME280;74129;52.540;13.416;2024-02-14T11:26:01;100967.84;;;8.15;72.45
84043;BME280;74129;52.540;13.416;2024-02-14T11:28:29;100960.84;;;8.14;72.61
84043;BME280;74129;52.540;13.416;2024-02-14T11:31:02;100964.32;;;8.13;72.70
84043;BME280;74129;52.540;13.416;2024-02-14T11:33:29;100964.23;;;8.11;72.93
84043;BME280;74129;52.540;13.416;2024-02-14T11:35:56;100965.91;;;8.09;73.00
84043;BME280;74129;52.540;13.416;2024-02-14T11:38:24;100959.98;;;8.09;72.94
84043;BME280;74129;52.540;13.416;2024-02-14T11:40:56;100963.38;;;8.11;73.06
84043;BME280;74129;52.540;13.416;2024-02-14T11:43:23;100959.77;;;8.10;73.27
84043;BME280;74129;52.540;13.416;2024-02-14T11:45:50;100963.98;;;8.09;73.21
84043;BME280;74129;52.540;13.416;2024-02-14T11:48:18;100961.98;;;8.08;73.33
84043;BME280;74129;52.540;13.416;2024-02-14T11:50:52;100958.48;;;8.07;73.16
84043;BME280;74129;52.540;13.416;2024-02-14T11:53:19;100961.52;;;8.07;73.19
84043;BME280;74129;52.540;13.416;2024-02-14T11:55:47;100959.27;;;8.07;73.32
84043;BME280;74129;52.540;13.416;2024-02-14T11:58:15;100960.52;;;8.06;73.47
84043;BME280;74129;52.540;13.416;2024-02-14T12:00:43;100960.91;;;8.04;73.46
84043;BME280;74129;52.540;13.416;2024-02-14T12:03:12;100962.20;;;8.06;73.44
84043;BME280;74129;52.540;13.416;2024-02-14T12:05:39;100958.59;;;8.10;73.54
84043;BME280;74129;52.540;13.416;2024-02-14T12:08:07;100958.87;;;8.12;73.74
84043;BME280;74129;52.540;13.416;2024-02-14T12:10:37;100954.20;;;8.14;73.77
84043;BME280;74129;52.540;13.416;2024-02-14T12:13:11;100955.23;;;8.16;74.03
84043;BME280;74129;52.540;13.416;2024-02-14T12:15:42;100953.21;;;8.17;74.22
84043;BME280;74129;52.540;13.416;2024-02-14T12:18:10;100950.21;;;8.17;74.14
84043;BME280;74129;52.540;13.416;2024-02-14T12:20:41;100951.14;;;8.16;74.19
84043;BME280;74129;52.540;13.416;2024-02-14T12:23:07;100951.72;;;8.15;74.28
84043;BME280;74129;52.540;13.416;2024-02-14T12:25:34;100956.15;;;8.17;74.26
84043;BME280;74129;52.540;13.416;2024-02-14T12:28:00;100950.89;;;8.19;74.42
84043;BME280;74129;52.540;13.416;2024-02-14T12:30:51;100952.11;;;8.20;75.12
84043;BME280;74129;52.540;13.416;2024-02-14T12:33:24;100943.52;;;8.29;75.08
84043;BME280;74129;52.540;13.416;2024-02-14T12:35:53;100947.36;;;8.32;74.74
84043;BME280;74129;52.540;13.416;2024-02-14T12:38:21;100954.58;;;8.36;74.44
84043;BME280;74129;52.540;13.416;2024-02-14T12:40:49;100953.18;;;8.38;74.81
84043;BME280;74129;52.540;13.416;2024-02-14T12:43:15;100952.15;;;8.40;74.54
84043;BME280;74129;52.540;13.416;2024-02-14T12:45:42;100942.36;;;8.41;75.04
84043;BME280;74129;52.540;13.416;2024-02-14T12:48:11;100952.21;;;8.43;74.81
84043;BME280;74129;52.540;13.416;2024-02-14T12:50:38;100955.08;;;8.47;74.72